Terminal Aerodrome Forecast
Issued by NWS

Home | Current Version | Previous Version | Text Only | Print | Product List | Glossary On
Versions: 1 2 3 4 5 6 7 8 9 10 11 12 13 14 15 16 17 18 19 20 21 22 23 24 25 26 27 28 29 30
000
FTUS44 KHGX 202340
TAFLBX
TAF
KLBX 202340Z 2100/2124 18014KT P6SM FEW030
     FM210400 VRB03KT P6SM SKC
     FM211000 15005KT P6SM MIFG SCT020
     FM211600 18012KT P6SM FEW050=

USA.gov is the U.S. government's official web portal to all federal, state and local government web resources and services.